Country
Station

 

Weather  for  Somerset Automatic Weather Observing/Reporting System  -  United States    United States

  
16 °C (61 °F)
    
 
 

Current METAR for Somerset Automatic Weather Observing/Reporting System is :

KSME 020955Z AUTO 00000KT 10SM CLR 16/10 A3018 RMK AO2

 

This is a report for Somerset Automatic Weather Observing/Reporting System - United States.
 
The report was made 10 minutes ago, at 09:55 UTC .
The wind was calm.
 
The temperature was 16 °C (61 °F), with a dew-point at 10 °C (50 °F).
The atmospheric pressure was 1022 hPa (30.18 inHg).
The relative humidity was 67.5%.
 
The sky was clear.
 
The overall visibility was 16.1 kilometers (10.0 miles).
 

 
 
 
 

Country :   A   B   C   D   E   F   G   H   I   J   K   L   M   N   O   P   Q   R   S   T   U   V   W   Y   Z

 

Site Info  |  Disclaimer  |  Credits  |  Privacy
Contact us  |  Add to favorites
© 2013-2020 METARs - All rights reserved